Últimos artigos:
MSK144, FT8… using an IC-9700 and WSJT-X
Resolvendo um problema de áudio no GNU Radio
Converter um número Real para o formato binário em vírgula flutuante segundo a Norma IEEE-754
VirtualBox sobre Debian 10 (buster) não encontra dispositivos USB
Falta de som no Morse Runner em Linux?
Touchpad tapping, em Debian Buster (10)
Últimas fotos:
Últimos METARs:
LPAZ 212100Z 28003KT 9999 FEW010 BKN018 19...
LPFR 212100Z 26014KT CAVOK 19/15 Q1016=
LPHR 212000Z 27007KT 1000 -DZ BR OVC002 18...
LPLA 212100Z /////KT 9999 -DZ FEW002 SCT00...
LPMA 212100Z VRB04KT 9999 FEW016 19/14 Q10...
LPPD 212100Z 26005KT 0800 R30/1000U FG VV0...
LPPR 212100Z 20005KT 9999 FEW012 BKN018 17...
LPPS 212100Z 36010KT 9999 SCT015 19/14 Q10...
LPPT 212100Z 22015KT 9999 SCT010 BKN018 17...
Últimos QSOs:
2022/04/18-12:39 40m EA1HPZ (JESUS)
2022/04/18-12:09 40m EA3Y (MANEL)
2022/04/18-12:08 40m EA2CKX (PEDRO)
2022/04/18-12:08 40m EA1AAP (FERNANDO)
2022/04/18-12:07 40m CT2GSN/P (JOAO)
2022/04/18-12:06 40m CT7ABG ()
  UTC

Fatal error: Allowed memory size of 268435456 bytes exhausted (tried to allocate 71 bytes) in /web/htdocs/www.airlomba.net/home/index.php on line 266